Time;durP1;ratioP1;P1;durP2;ratioP2;P2;SDS_P1;SDS_P2;PMS_P1;PMS_P2;Temp;Humidity;BMP_temperature;BMP_pressure;BME280_temperature;BME280_humidity;BME280_pressure;Samples;Min_cycle;Max_cycle;Signal;HPM_P1;HPM_P2
2024/04/11 00:01:37;;;;;;;0.03;0.03;;;17.20;77.60;;;;;;5477560;26;20021;-78
2024/04/11 00:04:04;;;;;;;0.10;0.10;;;17.20;77.80;;;;;;5480649;26;20386;-79
2024/04/11 00:06:29;;;;;;;0.10;0.10;;;17.20;77.80;;;;;;5484890;26;19991;-78
2024/04/11 00:08:55;;;;;;;0.05;0.00;;;17.10;77.90;;;;;;5439433;26;19999;-78
2024/04/11 00:11:20;;;;;;;0.10;0.10;;;17.20;77.90;;;;;;5447619;26;20353;-78
2024/04/11 00:13:46;;;;;;;0.13;0.10;;;17.10;77.70;;;;;;5477872;26;20003;-78
2024/04/11 00:16:12;;;;;;;1.95;0.10;;;17.10;77.80;;;;;;5483391;26;19998;-78
2024/04/11 00:18:40;;;;;;;0.10;0.10;;;17.10;77.70;;;;;;5478611;26;19998;-78
2024/04/11 00:21:06;;;;;;;0.25;0.17;;;17.10;78.00;;;;;;5484654;25;19990;-78
2024/04/11 00:23:31;;;;;;;0.20;0.10;;;17.10;77.90;;;;;;5486247;26;20006;-78
2024/04/11 00:25:58;;;;;;;0.20;0.10;;;17.10;78.00;;;;;;5480320;26;20346;-79
2024/04/11 00:28:25;;;;;;;0.15;0.15;;;17.20;78.20;;;;;;5516598;25;20098;-78
2024/04/11 00:30:51;;;;;;;0.10;0.10;;;17.10;78.00;;;;;;5445099;26;20460;-78
2024/04/11 00:33:17;;;;;;;0.10;0.10;;;17.10;78.20;;;;;;5480004;26;20031;-79
2024/04/11 00:35:42;;;;;;;0.20;0.20;;;17.10;78.20;;;;;;5479355;26;20005;-78
2024/04/11 00:38:10;;;;;;;0.20;0.20;;;17.10;79.40;;;;;;5452812;26;20012;-79
2024/04/11 00:40:38;;;;;;;0.00;0.00;;;17.10;78.30;;;;;;5450686;26;20001;-78
2024/04/11 00:43:09;;;;;;;0.20;0.10;;;17.10;78.30;;;;;;5484371;26;19990;-78
2024/04/11 00:45:39;;;;;;;0.22;0.10;;;17.10;78.20;;;;;;5486604;25;20339;-78
2024/04/11 00:48:04;;;;;;;0.10;0.10;;;17.10;78.40;;;;;;5480831;26;20331;-79
2024/04/11 00:50:30;;;;;;;0.30;0.20;;;17.10;78.10;;;;;;5486352;25;20006;-79
2024/04/11 00:52:55;;;;;;;0.20;0.20;;;17.10;78.20;;;;;;5480433;26;20010;-79
2024/04/11 00:55:21;;;;;;;0.10;0.10;;;17.10;78.40;;;;;;5450509;26;19999;-78
2024/04/11 00:57:50;;;;;;;0.10;0.10;;;17.10;78.20;;;;;;5461436;26;20609;-79
2024/04/11 01:00:18;;;;;;;0.20;0.20;;;17.10;78.20;;;;;;5475170;26;20002;-79
2024/04/11 01:02:43;;;;;;;0.20;0.20;;;17.10;78.10;;;;;;5472279;26;19999;-79
2024/04/11 01:05:09;;;;;;;0.15;0.15;;;17.10;78.40;;;;;;5454751;26;19997;-78
2024/04/11 01:07:35;;;;;;;0.30;0.30;;;17.10;78.40;;;;;;5479721;26;20087;-79
2024/04/11 01:10:00;;;;;;;0.08;0.08;;;17.10;78.40;;;;;;5488307;26;20345;-78
2024/04/11 01:12:26;;;;;;;0.10;0.10;;;17.10;78.40;;;;;;5482215;26;19990;-77
2024/04/11 01:14:51;;;;;;;0.13;0.13;;;17.10;78.60;;;;;;5460461;26;20405;-78
2024/04/11 01:17:17;;;;;;;0.30;0.25;;;17.10;78.40;;;;;;5453340;26;20005;-78
2024/04/11 01:19:44;;;;;;;0.13;0.10;;;17.10;78.50;;;;;;5481887;26;20013;-78
2024/04/11 01:22:10;;;;;;;0.32;0.10;;;17.10;78.40;;;;;;5459835;26;19998;-78
2024/04/11 01:24:39;;;;;;;0.20;0.15;;;17.10;78.70;;;;;;5481792;26;20086;-78
2024/04/11 01:27:07;;;;;;;0.20;0.10;;;17.10;78.60;;;;;;5473969;26;20456;-78
2024/04/11 01:29:35;;;;;;;0.20;0.20;;;17.10;78.20;;;;;;5443866;26;20002;-78
2024/04/11 01:32:03;;;;;;;0.13;0.13;;;17.10;78.60;;;;;;5448457;26;20327;-79
2024/04/11 01:34:30;;;;;;;0.30;0.30;;;17.10;78.50;;;;;;5478433;26;19990;-79
2024/04/11 01:36:58;;;;;;;0.20;0.20;;;17.10;78.60;;;;;;5478535;26;19995;-78
2024/04/11 01:39:24;;;;;;;0.30;0.10;;;17.10;78.60;;;;;;5471829;26;20009;-79
2024/04/11 01:41:50;;;;;;;0.20;0.10;;;17.10;78.30;;;;;;5486151;26;20359;-78
2024/04/11 01:44:16;;;;;;;0.20;0.20;;;17.10;78.10;;;;;;5479977;26;20033;-78
2024/04/11 01:46:42;;;;;;;0.20;0.20;;;17.10;78.30;;;;;;5443678;26;20003;-78
2024/04/11 01:49:08;;;;;;;0.10;0.10;;;17.10;78.60;;;;;;5454409;26;20031;-78
2024/04/11 01:51:34;;;;;;;0.10;0.10;;;17.10;78.10;;;;;;5452179;26;20131;-78
2024/04/11 01:54:00;;;;;;;0.20;0.10;;;17.10;78.30;;;;;;5451144;26;20448;-77
2024/04/11 01:56:25;;;;;;;0.52;0.30;;;17.10;78.50;;;;;;5481017;26;19994;-78
2024/04/11 01:58:52;;;;;;;0.40;0.20;;;17.10;78.60;;;;;;5449570;26;20005;-78
2024/04/11 02:01:20;;;;;;;0.60;0.30;;;17.10;78.80;;;;;;5480846;26;20002;-78
2024/04/11 02:03:45;;;;;;;0.20;0.20;;;17.10;78.90;;;;;;5451103;26;20009;-78
2024/04/11 02:06:11;;;;;;;1.23;0.30;;;17.10;78.90;;;;;;5480349;26;20003;-78
2024/04/11 02:08:43;;;;;;;0.28;0.28;;;17.10;78.80;;;;;;5474419;26;20013;-78
2024/04/11 02:11:11;;;;;;;0.25;0.25;;;17.10;78.60;;;;;;5474935;26;20017;-78
2024/04/11 02:13:38;;;;;;;0.20;0.20;;;17.10;78.60;;;;;;5474586;26;20499;-78
2024/04/11 02:16:04;;;;;;;0.57;0.20;;;17.10;78.60;;;;;;5449291;26;20003;-78
2024/04/11 02:18:29;;;;;;;0.32;0.32;;;17.10;78.60;;;;;;5476685;26;19994;-78
2024/04/11 02:20:55;;;;;;;0.50;0.50;;;17.10;78.60;;;;;;5475172;26;20009;-78
2024/04/11 02:23:20;;;;;;;0.40;0.40;;;17.10;78.40;;;;;;5479516;26;20005;-78
2024/04/11 02:25:47;;;;;;;0.75;0.60;;;17.10;78.70;;;;;;5445066;26;20021;-78
2024/04/11 02:28:13;;;;;;;0.57;0.47;;;17.10;79.00;;;;;;5478377;26;19990;-78
2024/04/11 02:30:39;;;;;;;0.60;0.40;;;17.10;79.10;;;;;;5478358;26;20005;-78
2024/04/11 02:33:04;;;;;;;0.77;0.63;;;17.10;79.10;;;;;;5477719;26;20006;-78
2024/04/11 02:35:30;;;;;;;1.10;0.50;;;17.10;78.90;;;;;;5480992;26;20458;-78
2024/04/11 02:37:55;;;;;;;0.40;0.40;;;17.10;78.80;;;;;;5476355;26;20400;-78
2024/04/11 02:40:21;;;;;;;0.35;0.30;;;17.10;78.40;;;;;;5452079;26;20002;-78
2024/04/11 02:42:47;;;;;;;0.65;0.32;;;17.10;79.20;;;;;;5485285;26;20026;-78
2024/04/11 02:45:14;;;;;;;0.38;0.20;;;17.10;79.30;;;;;;5485021;25;20101;-78
2024/04/11 02:47:41;;;;;;;0.50;0.35;;;17.10;79.30;;;;;;5472431;26;20009;-79
2024/04/11 02:50:15;;;;;;;0.45;0.32;;;17.10;79.00;;;;;;5484613;26;20023;-77
2024/04/11 02:52:41;;;;;;;0.40;0.30;;;17.10;79.20;;;;;;5478495;26;19997;-78
2024/04/11 02:55:08;;;;;;;0.30;0.20;;;17.10;78.80;;;;;;5479128;26;20460;-78
2024/04/11 02:57:34;;;;;;;0.28;0.15;;;17.10;78.80;;;;;;5482945;26;19994;-78
2024/04/11 03:00:00;;;;;;;0.25;0.20;;;17.10;79.20;;;;;;5476459;25;20006;-78
2024/04/11 03:02:28;;;;;;;0.85;0.50;;;17.10;79.10;;;;;;5478682;26;20001;-78
2024/04/11 03:04:56;;;;;;;0.30;0.30;;;17.10;78.60;;;;;;5442709;26;20002;-78
2024/04/11 03:07:22;;;;;;;0.20;0.20;;;17.10;78.70;;;;;;5480268;26;20001;-79
2024/04/11 03:09:48;;;;;;;0.10;0.10;;;17.10;78.60;;;;;;5484398;25;20081;-79
2024/04/11 03:12:14;;;;;;;0.57;0.20;;;17.10;78.70;;;;;;5477484;26;20041;-79
2024/04/11 03:14:40;;;;;;;0.25;0.25;;;17.10;78.40;;;;;;5407628;26;20002;-79
2024/04/11 03:17:05;;;;;;;0.30;0.28;;;17.10;78.50;;;;;;5448804;26;20008;-79
2024/04/11 03:19:31;;;;;;;0.30;0.30;;;17.10;78.30;;;;;;5477889;26;20074;-79
2024/04/11 03:21:57;;;;;;;0.20;0.17;;;17.10;78.50;;;;;;5482117;26;19990;-79
2024/04/11 03:24:22;;;;;;;0.60;0.40;;;17.10;78.40;;;;;;5478529;26;20004;-78
2024/04/11 03:26:48;;;;;;;0.35;0.30;;;17.10;78.60;;;;;;5451195;26;20067;-79
2024/04/11 03:29:15;;;;;;;0.47;0.35;;;17.10;78.70;;;;;;5448753;26;20035;-79
2024/04/11 03:31:42;;;;;;;0.38;0.28;;;17.10;78.80;;;;;;5448102;26;20002;-79
2024/04/11 03:34:08;;;;;;;0.80;0.50;;;17.20;79.00;;;;;;5453883;26;20352;-79
2024/04/11 03:36:34;;;;;;;0.82;0.47;;;17.10;78.90;;;;;;5480009;26;19994;-78
2024/04/11 03:38:59;;;;;;;0.40;0.30;;;17.10;78.80;;;;;;5476233;26;20002;-79
2024/04/11 03:41:26;;;;;;;0.30;0.30;;;17.10;78.60;;;;;;5483480;26;20458;-79
2024/04/11 03:43:55;;;;;;;0.63;0.50;;;17.10;78.30;;;;;;5479629;26;20010;-79
2024/04/11 03:46:23;;;;;;;0.20;0.20;;;17.20;78.40;;;;;;5480384;26;20005;-78
2024/04/11 03:48:56;;;;;;;0.55;0.40;;;17.20;78.60;;;;;;5451107;26;20013;-78
2024/04/11 03:51:28;;;;;;;0.30;0.30;;;17.10;78.80;;;;;;5457850;26;20005;-79
2024/04/11 03:53:55;;;;;;;0.40;0.30;;;17.20;78.80;;;;;;5478156;26;20013;-79
2024/04/11 03:56:22;;;;;;;0.22;0.20;;;17.20;78.70;;;;;;5451822;26;20002;-78
2024/04/11 03:58:48;;;;;;;0.40;0.22;;;17.10;79.40;;;;;;5478957;26;19994;-78
2024/04/11 04:01:15;;;;;;;0.30;0.30;;;17.20;78.40;;;;;;5484554;26;21196;-78
2024/04/11 04:03:48;;;;;;;0.30;0.20;;;17.20;78.60;;;;;;5480867;25;19995;-78
2024/04/11 04:06:14;;;;;;;1.90;0.30;;;17.20;78.60;;;;;;5450582;26;20001;-78
2024/04/11 04:08:45;;;;;;;0.60;0.30;;;17.20;78.60;;;;;;5477466;26;20010;-78
2024/04/11 04:11:15;;;;;;;0.60;0.20;;;17.20;78.80;;;;;;5448078;26;20331;-78
2024/04/11 04:13:43;;;;;;;0.25;0.25;;;17.20;78.70;;;;;;5446033;26;19991;-78
2024/04/11 04:16:14;;;;;;;0.88;0.60;;;17.20;78.60;;;;;;5483713;25;20514;-79
2024/04/11 04:18:47;;;;;;;0.38;0.35;;;17.20;78.50;;;;;;5482886;26;20046;-78
2024/04/11 04:21:16;;;;;;;0.40;0.30;;;17.20;78.90;;;;;;5476610;26;20332;-77
2024/04/11 04:23:48;;;;;;;0.30;0.30;;;17.20;79.00;;;;;;5478331;26;20013;-78
2024/04/11 04:26:19;;;;;;;0.57;0.50;;;17.20;78.80;;;;;;5450846;26;20646;-78
2024/04/11 04:28:44;;;;;;;0.30;0.30;;;17.20;78.70;;;;;;5471787;26;19999;-78
2024/04/11 04:31:20;;;;;;;0.30;0.30;;;17.20;79.10;;;;;;5479113;26;20323;-78
2024/04/11 04:33:49;;;;;;;0.60;0.45;;;17.20;79.00;;;;;;5450882;26;20013;-78
2024/04/11 04:36:26;;;;;;;0.55;0.55;;;17.20;79.10;;;;;;5475903;26;20122;-78
2024/04/11 04:38:52;;;;;;;0.88;0.50;;;17.20;79.40;;;;;;5474484;25;20033;-78
2024/04/11 04:41:18;;;;;;;0.35;0.35;;;17.20;79.50;;;;;;5481922;26;20022;-78
2024/04/11 04:43:45;;;;;;;0.70;0.30;;;17.20;80.20;;;;;;5474993;26;19998;-78
2024/04/11 04:46:15;;;;;;;0.45;0.35;;;17.20;79.40;;;;;;5510285;25;20397;-78
2024/04/11 04:48:41;;;;;;;0.32;0.32;;;17.20;79.60;;;;;;5484053;26;20010;-78
2024/04/11 04:51:06;;;;;;;0.30;0.30;;;17.20;79.30;;;;;;5453181;26;20005;-78
2024/04/11 04:53:32;;;;;;;0.20;0.20;;;17.20;79.50;;;;;;5482590;26;19994;-78
2024/04/11 04:55:58;;;;;;;0.50;0.40;;;17.20;79.50;;;;;;5454155;26;20335;-79
2024/04/11 04:58:24;;;;;;;0.77;0.43;;;17.20;79.40;;;;;;5448918;26;20006;-79
2024/04/11 05:00:50;;;;;;;0.32;0.22;;;17.20;79.50;;;;;;5482064;26;19994;-78
2024/04/11 05:03:16;;;;;;;0.40;0.40;;;17.20;79.70;;;;;;5478691;26;19998;-78
2024/04/11 05:05:41;;;;;;;0.35;0.35;;;17.20;79.20;;;;;;5480711;26;20071;-79
2024/04/11 05:08:07;;;;;;;0.68;0.50;;;17.20;79.40;;;;;;5450333;26;20089;-80
2024/04/11 05:10:40;;;;;;;0.25;0.20;;;17.20;79.40;;;;;;5477310;26;19995;-79
2024/04/11 05:13:09;;;;;;;0.47;0.40;;;17.20;79.50;;;;;;5094198;26;9999981;-79
2024/04/11 05:15:36;;;;;;;1.00;0.43;;;17.20;79.20;;;;;;5448208;26;20077;-79
2024/04/11 05:18:02;;;;;;;0.28;0.20;;;17.20;80.40;;;;;;5474986;26;20779;-79
2024/04/11 05:20:27;;;;;;;0.35;0.32;;;17.20;80.00;;;;;;5445275;26;20002;-78
2024/04/11 05:22:53;;;;;;;0.63;0.50;;;17.20;79.70;;;;;;5441623;26;19998;-80
2024/04/11 05:25:19;;;;;;;1.20;0.50;;;17.20;80.10;;;;;;5477121;26;20002;-80
2024/04/11 05:27:44;;;;;;;1.85;0.52;;;17.20;81.30;;;;;;5423444;26;20042;-80
2024/04/11 05:30:13;;;;;;;0.80;0.60;;;17.20;80.10;;;;;;5476059;26;20067;-80
2024/04/11 05:32:39;;;;;;;0.43;0.30;;;17.30;80.20;;;;;;5476433;26;19994;-80
2024/04/11 05:35:09;;;;;;;0.63;0.40;;;17.20;80.50;;;;;;5469586;26;20097;-80
2024/04/11 05:37:36;;;;;;;0.52;0.43;;;17.20;80.10;;;;;;5469564;26;20230;-80
2024/04/11 05:40:05;;;;;;;0.55;0.55;;;17.20;80.70;;;;;;5476424;26;20006;-80
2024/04/11 05:42:35;;;;;;;0.73;0.60;;;17.20;80.90;;;;;;5498122;25;19994;-80
2024/04/11 05:45:04;;;;;;;0.45;0.40;;;17.20;80.80;;;;;;5482195;25;20493;-80
2024/04/11 05:47:30;;;;;;;0.98;0.43;;;17.20;80.60;;;;;;5468215;26;19998;-80
2024/04/11 05:49:57;;;;;;;0.75;0.40;;;17.20;80.50;;;;;;5446621;26;20005;-80
2024/04/11 05:52:23;;;;;;;0.65;0.40;;;17.20;80.50;;;;;;5475757;26;20327;-80
2024/04/11 05:54:51;;;;;;;0.65;0.50;;;17.20;80.70;;;;;;5475608;26;20009;-80
2024/04/11 05:57:17;;;;;;;1.02;0.55;;;17.20;80.50;;;;;;5477466;26;20005;-80
2024/04/11 05:59:44;;;;;;;0.57;0.50;;;17.20;80.50;;;;;;5450331;26;20010;-80
2024/04/11 06:02:13;;;;;;;0.60;0.45;;;17.20;80.40;;;;;;5470492;26;20497;-80
2024/04/11 06:04:41;;;;;;;0.38;0.28;;;17.20;80.20;;;;;;5471383;26;20151;-80
2024/04/11 06:07:08;;;;;;;0.40;0.32;;;17.20;80.30;;;;;;5476548;26;20002;-80
2024/04/11 06:09:34;;;;;;;0.70;0.50;;;17.20;80.00;;;;;;5471529;26;20034;-80
2024/04/11 06:12:00;;;;;;;0.65;0.22;;;17.20;80.00;;;;;;5472528;26;19994;-80
2024/04/11 06:14:27;;;;;;;0.22;0.22;;;17.20;79.90;;;;;;5446574;26;19998;-80
2024/04/11 06:16:52;;;;;;;0.45;0.30;;;17.20;80.00;;;;;;5472344;26;19994;-80
2024/04/11 06:19:18;;;;;;;0.50;0.38;;;17.20;80.70;;;;;;5469386;26;20006;-79
2024/04/11 06:21:47;;;;;;;0.75;0.60;;;17.30;79.90;;;;;;5477117;25;20005;-79
2024/04/11 06:24:14;;;;;;;0.30;0.28;;;17.20;79.70;;;;;;5477865;26;20009;-79
2024/04/11 06:26:40;;;;;;;0.32;0.30;;;17.20;79.50;;;;;;5447008;26;20006;-82
2024/04/11 06:29:07;;;;;;;0.65;0.38;;;17.20;79.40;;;;;;5471374;26;20109;-80
2024/04/11 06:31:33;;;;;;;0.73;0.45;;;17.30;80.30;;;;;;5473829;26;20002;-80
2024/04/11 06:33:59;;;;;;;0.55;0.35;;;17.30;80.40;;;;;;5505530;25;20013;-80
2024/04/11 06:36:25;;;;;;;1.30;0.63;;;17.30;80.50;;;;;;5480361;26;19990;-80
2024/04/11 06:38:51;;;;;;;0.63;0.35;;;17.30;81.50;;;;;;5450954;26;20340;-80
2024/04/11 06:41:22;;;;;;;1.70;0.40;;;17.30;81.60;;;;;;5450947;26;22561;-80
2024/04/11 06:43:51;;;;;;;2.03;0.50;;;17.30;81.70;;;;;;5444886;26;19998;-79
2024/04/11 06:46:21;;;;;;;0.70;0.45;;;17.30;81.60;;;;;;5471475;26;20470;-80
2024/04/11 06:48:47;;;;;;;0.80;0.43;;;17.40;81.00;;;;;;5479264;26;20524;-80
2024/04/11 06:51:15;;;;;;;0.70;0.40;;;17.30;80.30;;;;;;5480880;26;20092;-79
2024/04/11 06:53:43;;;;;;;0.65;0.50;;;17.30;80.60;;;;;;5481807;25;20428;-80
2024/04/11 06:56:11;;;;;;;1.02;0.60;;;17.30;80.60;;;;;;5450223;26;22543;-79
2024/04/11 06:58:38;;;;;;;1.25;0.47;;;17.30;80.50;;;;;;5454731;26;20011;-80
2024/04/11 07:01:04;;;;;;;0.22;0.22;;;17.30;80.50;;;;;;5484593;25;19999;-80
2024/04/11 07:03:30;;;;;;;0.65;0.40;;;17.30;80.40;;;;;;5483429;26;20066;-80
2024/04/11 07:06:09;;;;;;;0.70;0.30;;;17.30;80.50;;;;;;5477038;26;20002;-80
2024/04/11 07:08:37;;;;;;;0.65;0.63;;;17.30;79.60;;;;;;5453591;26;20005;-80
2024/04/11 07:13:49;;;;;;;0.52;0.35;;;17.30;80.40;;;;;;5470929;26;20591;-80
2024/04/11 07:16:16;;;;;;;0.73;0.43;;;17.20;80.30;;;;;;5482498;26;20001;-80
2024/04/11 07:18:48;;;;;;;0.57;0.38;;;17.20;80.70;;;;;;5479389;26;20066;-80
2024/04/11 07:21:17;;;;;;;0.95;0.38;;;17.20;80.50;;;;;;5474270;26;19994;-80
2024/04/11 07:24:03;;;;;;;0.65;0.50;;;17.20;80.50;;;;;;5480780;25;20038;-80
2024/04/11 07:26:30;;;;;;;0.60;0.60;;;17.20;80.10;;;;;;5503790;25;20437;-80
2024/04/11 07:28:59;;;;;;;0.77;0.57;;;17.20;80.20;;;;;;5477067;26;20004;-79
2024/04/11 07:31:25;;;;;;;0.40;0.40;;;17.20;80.10;;;;;;5478790;26;20006;-80
2024/04/11 07:33:50;;;;;;;1.33;0.52;;;17.20;80.30;;;;;;5479814;26;20071;-79
2024/04/11 07:36:22;;;;;;;1.25;0.47;;;17.30;80.30;;;;;;5475143;26;20009;-80
2024/04/11 07:38:48;;;;;;;1.23;0.60;;;17.30;80.50;;;;;;5477833;26;20322;-80
2024/04/11 07:41:18;;;;;;;0.95;0.47;;;17.30;80.50;;;;;;5475136;26;20018;-80
2024/04/11 07:43:55;;;;;;;0.25;0.20;;;17.30;80.30;;;;;;5449195;26;19998;-80
2024/04/11 07:46:33;;;;;;;0.77;0.43;;;17.30;80.50;;;;;;5450419;26;20091;-80
2024/04/11 07:48:59;;;;;;;0.88;0.80;;;17.30;80.40;;;;;;5456494;26;19990;-80
2024/04/11 07:51:26;;;;;;;0.55;0.47;;;17.30;80.60;;;;;;5475087;26;19994;-80
2024/04/11 07:53:51;;;;;;;1.42;0.47;;;17.30;80.50;;;;;;5445189;26;20010;-80
2024/04/11 07:56:20;;;;;;;0.70;0.70;;;17.30;80.30;;;;;;5454013;26;20449;-79
2024/04/11 07:58:50;;;;;;;1.15;0.30;;;17.30;80.20;;;;;;5447695;26;19998;-80
2024/04/11 08:01:16;;;;;;;0.55;0.50;;;17.40;80.00;;;;;;5495138;26;19994;-80
2024/04/11 08:03:43;;;;;;;0.55;0.40;;;17.40;80.40;;;;;;5477524;26;20006;-80
2024/04/11 08:06:10;;;;;;;0.80;0.30;;;17.40;80.10;;;;;;5479823;26;20002;-79
2024/04/11 08:08:36;;;;;;;0.52;0.40;;;17.40;80.20;;;;;;5473949;26;20014;-80
2024/04/11 08:11:02;;;;;;;0.70;0.50;;;17.40;79.90;;;;;;5479242;26;20008;-80
2024/04/11 08:13:32;;;;;;;1.23;0.50;;;17.40;80.50;;;;;;5477406;26;20067;-80
2024/04/11 08:15:58;;;;;;;1.02;0.30;;;17.40;80.50;;;;;;5482929;26;21078;-80
2024/04/11 08:18:27;;;;;;;0.55;0.30;;;17.40;80.60;;;;;;5478915;26;20036;-80
2024/04/11 08:20:53;;;;;;;1.38;0.40;;;17.40;80.90;;;;;;5478968;26;19994;-80
2024/04/11 08:23:20;;;;;;;0.40;0.40;;;17.40;80.80;;;;;;5477177;25;21138;-79
2024/04/11 08:25:49;;;;;;;1.65;0.55;;;17.40;81.00;;;;;;5478566;26;20039;-80
2024/04/11 08:28:15;;;;;;;0.55;0.40;;;17.40;80.90;;;;;;5486080;26;20026;-80
2024/04/11 08:30:41;;;;;;;0.50;0.32;;;17.40;80.80;;;;;;5480469;26;20075;-80
2024/04/11 08:33:09;;;;;;;0.73;0.38;;;17.40;80.60;;;;;;5481575;26;20096;-80
2024/04/11 08:35:35;;;;;;;0.55;0.30;;;17.40;80.20;;;;;;5483049;26;20017;-80
2024/04/11 08:38:03;;;;;;;0.45;0.45;;;17.40;80.20;;;;;;5480629;26;20054;-80
2024/04/11 08:40:30;;;;;;;0.65;0.57;;;17.40;80.00;;;;;;5477761;26;20025;-80
2024/04/11 08:42:56;;;;;;;0.68;0.40;;;17.40;80.30;;;;;;5480717;26;20002;-79
2024/04/11 08:45:22;;;;;;;0.57;0.50;;;17.50;80.10;;;;;;5473452;26;20029;-80
2024/04/11 08:47:48;;;;;;;0.75;0.38;;;17.50;80.10;;;;;;5477054;25;20013;-80
2024/04/11 08:50:13;;;;;;;0.68;0.35;;;17.50;79.80;;;;;;5474821;26;20063;-80
2024/04/11 08:52:40;;;;;;;0.73;0.40;;;17.50;79.90;;;;;;5480303;26;20021;-80
2024/04/11 08:55:06;;;;;;;1.00;0.43;;;17.50;80.30;;;;;;5480387;26;20002;-80
2024/04/11 08:57:32;;;;;;;0.80;0.40;;;17.50;79.80;;;;;;5477127;26;20459;-79
2024/04/11 08:59:59;;;;;;;0.80;0.60;;;17.60;79.80;;;;;;5483372;26;19998;-80
2024/04/11 09:02:25;;;;;;;0.40;0.32;;;17.50;79.90;;;;;;5480962;26;20009;-80
2024/04/11 09:04:51;;;;;;;0.43;0.30;;;17.60;79.70;;;;;;5478063;26;19995;-80
2024/04/11 09:07:22;;;;;;;0.47;0.30;;;17.60;79.40;;;;;;5485450;26;20384;-80
2024/04/11 09:09:51;;;;;;;0.75;0.40;;;17.60;79.20;;;;;;5482745;26;20073;-80
2024/04/11 09:12:17;;;;;;;0.95;0.30;;;17.60;79.70;;;;;;5487368;26;19998;-80
2024/04/11 09:14:47;;;;;;;0.40;0.30;;;17.60;78.80;;;;;;5483163;26;19997;-80
2024/04/11 09:17:14;;;;;;;0.43;0.40;;;17.60;78.70;;;;;;5475880;26;20009;-80
2024/04/11 09:19:40;;;;;;;0.43;0.32;;;17.60;78.80;;;;;;5474390;26;20003;-80
2024/04/11 09:22:21;;;;;;;1.45;0.40;;;17.70;78.90;;;;;;5486535;26;20008;-79
2024/04/11 09:24:47;;;;;;;0.50;0.22;;;17.70;78.40;;;;;;5482611;26;20022;-80
2024/04/11 09:27:16;;;;;;;0.65;0.38;;;17.70;78.50;;;;;;5511275;25;20324;-80
2024/04/11 09:29:46;;;;;;;0.45;0.35;;;17.70;78.50;;;;;;5478903;26;20006;-79
2024/04/11 09:32:12;;;;;;;0.40;0.40;;;17.70;78.40;;;;;;5503300;25;19999;-80
2024/04/11 09:34:39;;;;;;;0.32;0.30;;;17.70;78.50;;;;;;5449288;26;20003;-79
2024/04/11 09:37:09;;;;;;;0.57;0.30;;;17.70;78.60;;;;;;5485459;26;19990;-80
2024/04/11 09:39:49;;;;;;;0.35;0.30;;;17.70;78.80;;;;;;5476475;26;19995;-79
2024/04/11 09:42:18;;;;;;;0.65;0.43;;;17.70;78.60;;;;;;5484469;26;20074;-80
2024/04/11 09:44:47;;;;;;;0.50;0.30;;;17.70;79.00;;;;;;5484336;26;20023;-80
2024/04/11 09:47:20;;;;;;;2.92;0.40;;;17.70;79.00;;;;;;5450354;26;20330;-80
2024/04/11 09:49:59;;;;;;;0.90;0.50;;;17.80;79.00;;;;;;5442180;26;20025;-80
2024/04/11 09:52:30;;;;;;;0.65;0.30;;;17.80;78.60;;;;;;5477327;26;19990;-80
2024/04/11 09:54:56;;;;;;;0.73;0.45;;;17.80;78.40;;;;;;5500819;26;20070;-80
2024/04/11 09:57:23;;;;;;;0.68;0.40;;;17.80;78.40;;;;;;5452204;26;20014;-79
2024/04/11 09:59:50;;;;;;;0.60;0.57;;;17.80;78.50;;;;;;5481378;26;19997;-80
2024/04/11 10:02:16;;;;;;;0.77;0.55;;;17.90;78.60;;;;;;5455468;26;20023;-80
2024/04/11 10:04:42;;;;;;;0.57;0.40;;;17.90;78.20;;;;;;5448840;26;20025;-80
2024/04/11 10:07:16;;;;;;;0.75;0.35;;;17.90;78.30;;;;;;5456309;26;19995;-79
2024/04/11 10:09:52;;;;;;;0.63;0.43;;;17.90;78.60;;;;;;5480349;26;19994;-79
2024/04/11 10:12:21;;;;;;;0.63;0.50;;;18.00;78.40;;;;;;5485573;26;20013;-80
2024/04/11 10:14:51;;;;;;;0.80;0.30;;;18.00;78.20;;;;;;5456304;26;20312;-80
2024/04/11 10:17:17;;;;;;;0.60;0.30;;;18.00;78.00;;;;;;5476905;26;20082;-80
2024/04/11 10:19:47;;;;;;;1.13;0.57;;;18.00;78.00;;;;;;5475081;26;20487;-79
2024/04/11 10:22:20;;;;;;;0.95;0.63;;;18.10;78.00;;;;;;5456321;26;20358;-79
2024/04/11 10:24:49;;;;;;;0.50;0.40;;;18.10;77.90;;;;;;5480523;26;19994;-80
2024/04/11 10:27:18;;;;;;;0.93;0.30;;;18.10;77.90;;;;;;5481454;25;20026;-80
2024/04/11 10:29:47;;;;;;;0.45;0.40;;;18.10;77.80;;;;;;5477394;26;19998;-80
2024/04/11 10:32:35;;;;;;;0.40;0.40;;;18.10;77.80;;;;;;5482193;25;20451;-79
2024/04/11 10:35:04;;;;;;;0.60;0.40;;;18.10;78.20;;;;;;5480498;25;20001;-79
2024/04/11 10:37:33;;;;;;;0.80;0.40;;;18.10;78.80;;;;;;5481417;26;19994;-79
2024/04/11 10:39:59;;;;;;;0.68;0.50;;;18.10;77.90;;;;;;5484427;26;19994;-80
2024/04/11 10:42:36;;;;;;;0.52;0.43;;;18.20;78.00;;;;;;5481223;26;19990;-79
2024/04/11 10:45:04;;;;;;;0.50;0.50;;;18.20;78.10;;;;;;5481807;26;20005;-80
2024/04/11 10:47:29;;;;;;;0.47;0.30;;;18.20;78.30;;;;;;5474499;26;20023;-79
2024/04/11 10:49:55;;;;;;;0.45;0.45;;;18.20;78.50;;;;;;5479188;26;20001;-80
2024/04/11 10:52:21;;;;;;;0.68;0.50;;;18.20;78.50;;;;;;5482501;26;20005;-80
2024/04/11 10:54:51;;;;;;;0.38;0.30;;;18.20;78.40;;;;;;5480325;26;19998;-80
2024/04/11 10:57:16;;;;;;;0.55;0.45;;;18.20;78.50;;;;;;5453333;26;20010;-80
2024/04/11 10:59:50;;;;;;;1.20;0.60;;;18.20;78.30;;;;;;5479907;26;20061;-80
2024/04/11 11:02:19;;;;;;;0.52;0.32;;;18.20;78.10;;;;;;5445705;26;20022;-79
2024/04/11 11:04:50;;;;;;;0.85;0.25;;;18.20;77.90;;;;;;5446923;26;20014;-79
2024/04/11 11:07:20;;;;;;;0.50;0.40;;;18.20;78.00;;;;;;5494107;25;19994;-79
2024/04/11 11:09:51;;;;;;;0.40;0.30;;;18.30;78.00;;;;;;5488512;26;19994;-79
2024/04/11 11:12:18;;;;;;;0.57;0.40;;;18.30;77.80;;;;;;5477013;26;19990;-80
2024/04/11 11:14:45;;;;;;;1.95;0.40;;;18.30;77.80;;;;;;5474386;26;20052;-80
2024/04/11 11:17:17;;;;;;;0.57;0.40;;;18.30;77.90;;;;;;5479529;26;20002;-79
2024/04/11 11:19:43;;;;;;;0.35;0.30;;;18.30;77.80;;;;;;5475404;26;20007;-80
2024/04/11 11:22:09;;;;;;;0.57;0.50;;;18.30;77.80;;;;;;5483549;26;20047;-80
2024/04/11 11:24:34;;;;;;;0.52;0.35;;;18.40;78.00;;;;;;5453362;26;19995;-79
2024/04/11 11:27:01;;;;;;;0.40;0.35;;;18.30;78.20;;;;;;5474638;26;19995;-79
2024/04/11 11:29:28;;;;;;;0.65;0.40;;;18.30;77.80;;;;;;5476784;26;20009;-79
2024/04/11 11:32:18;;;;;;;0.50;0.35;;;18.40;77.80;;;;;;5475052;26;20071;-79
2024/04/11 11:34:44;;;;;;;0.77;0.40;;;18.40;77.60;;;;;;5472589;26;20468;-79
2024/04/11 11:37:12;;;;;;;0.30;0.20;;;18.40;77.40;;;;;;5485502;26;20006;-79
2024/04/11 11:39:42;;;;;;;0.35;0.30;;;18.40;77.40;;;;;;5449105;26;20013;-79
2024/04/11 11:42:08;;;;;;;0.30;0.30;;;18.40;77.40;;;;;;5452900;26;20010;-80
2024/04/11 11:47:34;;;;;;;0.70;0.35;;;18.40;77.40;;;;;;5471072;26;19994;-79
2024/04/11 11:50:19;;;;;;;0.40;0.40;;;18.50;77.50;;;;;;5480160;26;20009;-80
2024/04/11 11:52:49;;;;;;;0.82;0.40;;;18.40;77.40;;;;;;5474984;26;20320;-80
2024/04/11 11:55:17;;;;;;;1.23;0.43;;;18.40;77.30;;;;;;5476667;26;19999;-80
2024/04/11 11:57:56;;;;;;;0.65;0.40;;;18.40;77.30;;;;;;5482347;26;19994;-79
2024/04/11 12:00:23;;;;;;;0.22;0.20;;;18.40;77.30;;;;;;5483372;26;20027;-79
2024/04/11 12:02:52;;;;;;;0.80;0.30;;;18.50;77.50;;;;;;5456611;26;19994;-79
2024/04/11 12:05:24;;;;;;;0.52;0.40;;;18.50;77.50;;;;;;5452409;26;20327;-79
2024/04/11 12:08:05;;;;;;;0.50;0.50;;;18.50;77.80;;;;;;5480736;26;20030;-79
2024/04/11 12:13:18;;;;;;;1.88;0.52;;;18.50;77.20;;;;;;5483786;26;20339;-79
2024/04/11 12:15:48;;;;;;;0.95;0.38;;;18.50;77.30;;;;;;5424742;26;20026;-79
2024/04/11 12:18:16;;;;;;;0.50;0.40;;;18.50;77.30;;;;;;5448162;26;20002;-79
2024/04/11 12:20:43;;;;;;;0.52;0.30;;;18.50;77.00;;;;;;5479322;25;20005;-79
2024/04/11 12:23:09;;;;;;;0.70;0.40;;;18.50;77.20;;;;;;5450796;26;20011;-79
2024/04/11 12:25:36;;;;;;;1.85;0.60;;;18.50;77.20;;;;;;5448193;26;20090;-79
2024/04/11 12:28:04;;;;;;;0.40;0.30;;;18.50;77.90;;;;;;5450699;26;20029;-80
2024/04/11 12:30:31;;;;;;;0.50;0.30;;;18.50;77.50;;;;;;5479968;26;20002;-80
2024/04/11 12:32:57;;;;;;;0.40;0.32;;;18.50;77.50;;;;;;5481050;26;20004;-79
2024/04/11 12:35:29;;;;;;;0.55;0.30;;;18.50;77.40;;;;;;5475075;26;20440;-80
2024/04/11 12:37:57;;;;;;;0.47;0.45;;;18.50;77.90;;;;;;5467536;26;20397;-80
2024/04/11 12:40:33;;;;;;;0.50;0.50;;;18.50;77.60;;;;;;5480122;26;19998;-79
2024/04/11 12:43:01;;;;;;;0.40;0.30;;;18.50;77.50;;;;;;5482663;26;20320;-79
2024/04/11 12:45:31;;;;;;;0.50;0.50;;;18.50;77.40;;;;;;5480693;26;19994;-79
2024/04/11 12:48:05;;;;;;;0.55;0.50;;;18.50;77.30;;;;;;5482394;26;19994;-79
2024/04/11 12:50:35;;;;;;;0.20;0.20;;;18.50;77.50;;;;;;5425044;26;20002;-79
2024/04/11 12:53:10;;;;;;;0.55;0.50;;;18.50;77.50;;;;;;5479651;26;19994;-79
2024/04/11 12:55:39;;;;;;;0.20;0.20;;;18.50;77.10;;;;;;5487502;25;20087;-80
2024/04/11 12:58:07;;;;;;;0.20;0.20;;;18.50;77.10;;;;;;5454769;26;20520;-79
2024/04/11 13:00:35;;;;;;;0.50;0.32;;;18.60;77.20;;;;;;5484787;26;20013;-79